Accueil
METAR-TAF:

METAR-TAF

Aéroports :

Aéroport de La Rochelle - île de Ré

La Rochelle, France

latitude: 46-10-45N, longitude: 1-11-43W, altitude: 23 m

Observation

Le bulletin a été fait il y a 15 minutes, à 04:30 UTC
Vent 6 kt de nord-est
Température 6°C
Humidité 93%
Pression 1026 hPa
Visibilité: 5000 m
brume

METAR: LFBH 240430Z AUTO 04006KT 5000 BR NSC 06/05 Q1026 TEMPO 0800 FG VV///

Heure: 05:45 (04:45 UTC)

Prévision

Le bulletin a été fait il y a 2 heures et 56 minutes, à 01:49 UTC
Prévision valable du 24 à 01 UTC au 24 à 24 UTC
Vent 8 kt de nord/nord-est
Visibilité 10 km ou plus
pas de nuages en-dessous de 1500 mètres et pas de cumulonimbus.
Probabilité 40% :
Temporairement
du 24 à 04 UTC au 24 à 08 UTC
Visibilité: 4000 m
brume
Probabilité 30% :
Temporairement
du 24 à 04 UTC au 24 à 07 UTC
Visibilité: 0800 m
brouillard

TAF: LFBH 240149Z 2401/2424 02008KT CAVOK PROB40 TEMPO 2404/2408 4000 BR PROB30 TEMPO 2404/2407 0800 FG VV///

Observations et prévisions météorologiques de plus de 4000 aéroports (messages METAR et TAF).

Les stations disponibles sont représentées par des disques jaunes et rouges sur la carte.

Passer la souris dessus pour voir le nom de la station.

Cliquer dessus pour voir les observations et prévisions météorologiques.

Pour changer de carte: cliquez sur les boutons verts avec une croix noire pour zoomer, sur le bouton vert avec un tiret pour effectuer un zoom arrière, ou sur les flèches vertes pour les cartes adjacentes.


METAR-TAF: